SLLP

Details ICAO SLLP (LPB)
Name El Alto Intl
Region Bolivia
Timezone America/La_Paz (UTC-4.0)
Plans Departing 898
Arriving 948
Stats Elevation 13,314 ft / 4,058 m (AMSL)
Location -16.513300° -68.192300°
Runways 1
Magnetic Variation 8.518° W
Sunrise 2021-01-16 10:13:59 UTC / 2021-01-16 06:13:59 Local
Sunset 2021-01-16 23:13:24 UTC / 2021-01-16 19:13:24 Local
Advertisement - Login to hide

Runways

ID Width Length Bearing (true/mag) Surface Threshold Overrun Markings Lighting
10 151 ft / 46 m 13,108 ft / 3,995 m 91.90° / 100.41° CONCRETE 0 ft / 0 m 108 ft / 33 m PREC-APP EDGE THRESHOLD ALSF-I REIL-OMNI
28 151 ft / 46 m 13,108 ft / 3,995 m 271.88° / 280.40° CONCRETE 0 ft / 0 m 125 ft / 38 m PREC-APP EDGE THRESHOLD REIL-OMNI

Approach Navaids

Runway Type Ident Frequency Range Bearing (true/mag) Slope Elevation
10 LOC-ILS ILPA 110.30 MHz 18 nm / 33 km 91.89° / 100.41° - 13,313 ft / 4,058 m (AMSL)
10 GS ILPA 110.30 MHz 10 nm / 19 km 92.79° / 101.31° 2.40° 13,313 ft / 4,058 m (AMSL)
10 MM MM - - 91.89° / 100.41° - 13,313 ft / 4,058 m (AMSL)

Map

Weather


0- 5 10 15 20 25 30 35+ Temperature / °C

Clouds and Precipitation
Forecast for 2021-01-16 18:00 UTC. Updated 5 hours ago

Ground ~20,000 ft ~40,000 ft Winds

METAR

SLLP 162000Z 16008KT 7000 -RA SCT015 FEW017CB BKN070 09/07 Q1032 METAR SLVR 162000Z 33018G30KT 9999 SCT015 FEW030CB BKN200 29/23 Q1002

TAF

TAF SLLP 161720Z 1618/1718 30012KT 8000 VCSH SCT017 FEW020CB FEW017CB TX15/1620Z TN05/1710Z TEMPO 1620/1622 TSRA BECMG 1702/1704 07005KT 3000E VCFG FEW002 SCT012

Frequencies

Tower 118.30 MHz La Paz Tower
Ground 121.90 MHz La Paz Ground
Approach 119.50 MHz La Paz Approach
Warning: Do not use this data for real-world aviation or navigation. No guarantee of current accuracy is given.